15h07 EDT


 

Suivi/Infos de l'aéroport


-ou-


 

Suivi des vols en temps réelN904PA ✈ 02-05-2013 ✈ SC1 - KDLO

Thumbnail
N904PA
PARAMOUNT CITRUS LLC · DELANO CA (registration)
( – info)
Delano Muni ( – info)
Delano, CA
18h37 UTC
12h02 PDT
Prévu: 18h37 UTC
Prévu: 12h31 PDT
Durée: 25 minutes
jeudi, 2 mai 2013
Statut A atterri il y a plus d'un an. (journal de vol & graphique)
Avion Inconnu
Vitesse Plan de vol: 111 kts (graphique)
Altitude (graphique)
Route n/a
JOURNAL DE L'ACTIVITE
Vous voulez une recherche complète sur l'historique de N904PA depuis 1998? Achetez maintenant. Recevez-le dans l'heure.
Date Avion Provenance Destination Départ Arrivée Durée
29-07-2014 BE9L ()Livermore Muni () 17h59 UTC 12h06 PDT En vol
29-07-2014 BE9L/GMeadows Field ()Salinas Muni () 08h18 PDT 09h03 PDT 0:45
29-07-2014 Unknown ()Meadows Field () 00h10 UTC 17h34 PDT (-1) 0:24
28-07-2014 Unknown ()Meadows Field () 21h59 UTC 15h25 PDT 0:26
28-07-2014 BE9L ()Santa Monica Muni () 15h59 UTC 09h47 PDT 0:48
24-07-2014 BE9L ()Meadows Field () 23h05 UTC 17h02 PDT 0:57
24-07-2014 BE9LMeadows Field ()Stockton Metropolitan () 08h33 PDT 09h28 PDT 0:55
24-07-2014 UnknownVan Nuys ()Meadows Field () 07h27 PDT 07h51 PDT 0:24
24-07-2014 BE90 ()Van Nuys () 13h06 UTC 06h52 PDT 0:46
23-07-2014 UnknownVan Nuys ()Meadows Field () 18h39 PDT 19h06 PDT 0:27
24-07-2014 Unknown ()Van Nuys () 00h46 UTC 18h12 PDT (-1) 0:26
23-07-2014 BE9LVan Nuys ()Meadows Field () 14h32 PDT 14h56 PDT 0:24
23-07-2014 BE90R RZS 346 61Van Nuys () 16h49 UTC 10h20 PDT 0:30
23-07-2014 BE9LVan Nuys ()Meadows Field () 07h38 PDT 08h04 PDT 0:26
23-07-2014 BE9L ()Fresno Yosemite Intl () 02h05 UTC 19h52 PDT (-1) 0:47
22-07-2014 BE9LMeadows Field ()Santa Monica Muni () 17h57 PDT 18h29 PDT 0:32
22-07-2014 BE9L ()Paso Robles Muni () 22h50 UTC 16h27 PDT (?) 0:37
22-07-2014 BE9LR RZS 356 52Santa Monica Muni () 01h25 UTC 18h59 PDT (-1) (?) 0:33
21-07-2014 BE90 ()Meadows Field () 19h25 UTC 13h01 PDT 0:36
21-07-2014 BE9L ()Paramount Farms () 14h38 UTC 08h13 PDT 0:34
21-07-2014 BE9LFresno Yosemite Intl ()Santa Monica Muni () 06h24 PDT 07h18 PDT 0:54
19-07-2014 BE9L ()Meadows Field () 01h41 UTC 19h08 PDT (-1) 0:27
18-07-2014 BE90 ()Meadows Field () 00h35 UTC 18h28 PDT (-1) 0:53
17-07-2014 BE9LMeadows Field ()Jacqueline Cochran Rgnl () 16h03 PDT 16h55 PDT 0:52
17-07-2014 BE20Palm Springs Intl ()Meadows Field () 08h18 PDT 09h03 PDT 0:45
17-07-2014 BE9L ()Paso Robles Muni () 00h15 UTC 18h04 PDT (-1) (?) 0:49
16-07-2014 BE9L ()Paso Robles Muni () 19h39 UTC 13h11 PDT 0:32
16-07-2014 BE9L/GPaso Robles Muni ()Santa Monica Muni () 11h29 PDT 12h17 PDT 0:48
16-07-2014 BE9L/GSanta Monica Muni ()Paso Robles Muni () 10h17 PDT 10h59 PDT 0:42
16-07-2014 BE9L/GDelano Muni ()Santa Monica Muni () 08h30 PDT 09h07 PDT 0:37
16-07-2014 BE9L/GSanta Monica Muni ()Delano Muni () 07h43 PDT 08h16 PDT 0:33
16-07-2014 BE9L/GMeadows Field ()Santa Monica Muni () 06h38 PDT 07h13 PDT 0:34
16-07-2014 Unknown ()Meadows Field () 01h55 UTC 19h23 PDT (-1) 0:28
15-07-2014 BE9LR PYE 354 21Paso Robles Muni () 22h52 UTC 17h27 PDT (?) 1:34
Les membres inscrits (l'inscription est gratuite et facile!) voient 4 months d'historique. S'inscrire